Time;durP1;ratioP1;P1;durP2;ratioP2;P2;SDS_P1;SDS_P2;PMS_P1;PMS_P2;Temp;Humidity;BMP_temperature;BMP_pressure;BME280_temperature;BME280_humidity;BME280_pressure;Samples;Min_cycle;Max_cycle;Signal;HPM_P1;HPM_P2
2023/07/01 00:03:30;;;;;;;3.03;2.60;;;19.10;90.70;;;17.99;79.70;99385.53;12363832;23;96903;-87
2023/07/01 00:08:33;;;;;;;2.90;2.55;;;19.00;90.90;;;17.90;79.72;99379.72;12344892;23;97000;-87
2023/07/01 00:13:37;;;;;;;3.00;2.65;;;18.90;91.10;;;17.85;80.12;99379.59;12343342;23;96542;-86
2023/07/01 00:18:42;;;;;;;3.13;2.78;;;18.90;91.30;;;17.85;80.23;99376.91;12343153;23;96485;-86
2023/07/01 00:23:46;;;;;;;3.72;3.00;;;18.90;91.30;;;17.83;80.80;99370.97;12344344;23;96408;-86
2023/07/01 00:28:50;;;;;;;4.68;3.33;;;18.80;91.50;;;17.76;80.72;99381.03;12343560;23;96433;-86
2023/07/01 00:33:54;;;;;;;3.97;3.13;;;18.80;91.70;;;17.73;81.43;99373.44;12342415;23;96528;-87
2023/07/01 00:38:57;;;;;;;4.47;3.10;;;18.80;91.90;;;17.67;81.62;99367.09;12347314;23;98187;-86
2023/07/01 00:44:03;;;;;;;3.95;3.45;;;18.60;92.10;;;17.60;81.96;99371.75;12343476;23;96485;-86
2023/07/01 00:49:07;;;;;;;3.40;3.10;;;18.60;92.40;;;17.51;82.95;99359.75;12343339;23;97296;-87
2023/07/01 00:54:12;;;;;;;4.57;3.55;;;18.50;92.70;;;17.48;83.27;99367.44;12367206;23;96347;-87
2023/07/01 00:59:16;;;;;;;3.58;3.28;;;18.40;92.90;;;17.41;83.63;99353.31;12340969;23;96476;-86
2023/07/01 01:04:34;;;;;;;4.60;3.60;;;18.40;93.20;;;17.32;84.17;99350.97;12335945;23;96708;-87
2023/07/01 01:09:47;;;;;;;5.13;3.72;;;18.30;93.50;;;17.29;84.35;99367.53;12344719;23;96390;-86
2023/07/01 01:14:52;;;;;;;5.03;4.05;;;18.20;93.80;;;17.27;84.28;99358.06;12344407;23;96499;-87
2023/07/01 01:20:12;;;;;;;4.63;3.83;;;18.20;94.00;;;17.21;84.54;99345.56;12341916;23;96350;-87
2023/07/01 01:25:42;;;;;;;4.88;4.32;;;18.20;94.20;;;17.16;84.86;99340.09;12344517;23;96727;-87
2023/07/01 01:30:47;;;;;;;9.13;4.07;;;18.10;94.60;;;17.12;84.83;99332.50;12344433;23;96575;-87
2023/07/01 01:35:53;;;;;;;4.63;4.18;;;18.10;94.70;;;17.10;85.46;99331.09;12319448;23;96768;-87
2023/07/01 01:41:17;;;;;;;4.50;3.92;;;18.10;95.00;;;17.05;85.66;99334.47;12342918;23;96713;-87
2023/07/01 01:46:22;;;;;;;6.20;4.40;;;18.10;95.30;;;16.98;85.86;99328.41;12341308;23;96503;-86
2023/07/01 01:51:27;;;;;;;5.32;4.13;;;18.00;95.50;;;16.87;86.26;99320.34;12342595;23;96874;-86
2023/07/01 01:56:33;;;;;;;8.32;5.00;;;17.90;95.70;;;16.87;86.46;99333.75;12343344;23;96588;-87
2023/07/01 02:01:36;;;;;;;6.80;4.88;;;17.90;96.10;;;16.83;86.76;99342.25;12341344;23;97128;-87
2023/07/01 02:06:40;;;;;;;4.78;4.28;;;17.80;96.30;;;16.75;87.58;99328.34;12341889;23;96505;-87
2023/07/01 02:11:44;;;;;;;5.13;4.63;;;17.80;96.50;;;16.74;87.92;99340.13;12319684;23;96475;-86
2023/07/01 02:16:49;;;;;;;6.78;4.97;;;17.70;96.80;;;16.62;88.67;99323.97;12341074;23;96411;-86
2023/07/01 02:21:53;;;;;;;6.43;4.68;;;17.70;97.10;;;16.65;88.94;99330.72;12366782;23;97034;-86
2023/07/01 02:26:57;;;;;;;7.18;4.93;;;17.60;97.40;;;16.61;88.80;99338.41;12341779;23;96521;-86
2023/07/01 02:32:00;;;;;;;6.07;4.90;;;17.60;97.50;;;16.55;89.23;99336.63;12342732;23;96501;-86
2023/07/01 02:37:05;;;;;;;5.28;4.65;;;17.60;97.80;;;16.55;88.61;99333.94;12343534;23;96794;-87
2023/07/01 02:42:09;;;;;;;5.75;4.22;;;17.60;98.00;;;16.50;89.42;99333.84;12344718;23;97020;-86
2023/07/01 02:47:14;;;;;;;6.43;5.72;;;17.50;98.10;;;16.47;89.66;99339.63;12342821;23;96781;-86
2023/07/01 02:52:17;;;;;;;6.13;5.53;;;17.50;98.40;;;16.44;89.82;99338.25;12345768;23;97445;-87
2023/07/01 02:57:22;;;;;;;7.75;5.22;;;17.50;98.60;;;16.43;89.85;99333.91;12345318;23;96469;-87
2023/07/01 03:02:25;;;;;;;5.32;4.82;;;17.40;98.60;;;16.43;89.99;99338.44;12321737;23;96489;-86
2023/07/01 03:07:29;;;;;;;5.45;4.90;;;17.40;98.70;;;16.39;90.41;99340.78;12345217;23;96501;-87
2023/07/01 03:12:33;;;;;;;6.03;5.07;;;17.40;99.00;;;16.37;90.68;99339.34;12322476;23;96432;-86
2023/07/01 03:17:36;;;;;;;6.65;6.05;;;17.40;99.10;;;16.30;91.76;99342.94;12367019;23;96471;-87
2023/07/01 03:22:40;;;;;;;7.90;5.60;;;17.30;99.50;;;16.27;92.07;99343.41;12344266;23;96493;-86
2023/07/01 03:27:45;;;;;;;6.38;5.70;;;17.30;99.80;;;16.28;92.06;99337.00;12342933;23;96847;-87
2023/07/01 03:32:49;;;;;;;5.70;5.10;;;17.30;99.90;;;16.32;92.29;99351.59;12319865;23;97059;-87
2023/07/01 03:37:53;;;;;;;7.22;6.00;;;17.30;99.90;;;16.38;92.69;99338.34;12321327;23;96484;-86
2023/07/01 03:42:57;;;;;;;6.13;5.53;;;17.40;99.90;;;16.52;92.72;99332.53;12343369;23;96927;-86
2023/07/01 03:48:01;;;;;;;6.47;4.95;;;17.50;99.90;;;16.67;92.79;99332.13;12319839;23;96510;-86
2023/07/01 03:53:05;;;;;;;5.38;4.88;;;17.70;99.90;;;16.77;93.03;99327.06;12344060;23;96367;-86
2023/07/01 03:58:11;;;;;;;6.15;5.25;;;17.80;99.90;;;16.92;92.85;99323.16;12322331;23;96540;-87
2023/07/01 04:03:15;;;;;;;5.07;4.68;;;17.90;99.90;;;17.05;92.05;99320.25;12343616;23;96691;-86
2023/07/01 04:08:19;;;;;;;8.82;4.72;;;18.10;99.90;;;17.22;91.95;99323.88;12343569;23;96476;-87
2023/07/01 04:13:23;;;;;;;8.05;4.80;;;18.20;99.90;;;17.39;91.45;99316.78;12367328;23;96762;-86
2023/07/01 04:18:26;;;;;;;5.70;5.18;;;18.40;99.90;;;17.50;90.45;99306.25;12369276;23;96734;-87
2023/07/01 04:23:30;;;;;;;5.28;4.78;;;18.50;99.90;;;17.72;90.12;99306.50;12366758;23;96534;-86
2023/07/01 04:28:33;;;;;;;7.32;4.95;;;18.70;99.90;;;17.90;89.73;99319.78;12342462;23;96399;-87
2023/07/01 04:33:37;;;;;;;5.82;4.40;;;18.90;99.90;;;18.13;88.98;99311.66;12342397;23;96732;-88
2023/07/01 04:38:41;;;;;;;6.55;4.50;;;19.10;99.90;;;18.34;88.21;99318.25;12367332;23;96461;-88
2023/07/01 04:43:45;;;;;;;6.68;5.38;;;19.30;99.70;;;18.54;86.77;99312.44;12342786;23;96435;-88
2023/07/01 04:48:49;;;;;;;6.80;4.75;;;19.50;99.50;;;18.70;86.05;99310.84;12343136;23;96675;-88
2023/07/01 04:53:52;;;;;;;5.25;4.75;;;19.70;99.10;;;18.85;84.70;99311.13;12343754;23;96826;-88
2023/07/01 04:58:57;;;;;;;6.72;5.07;;;19.80;98.70;;;19.01;83.69;99314.88;12344241;23;97243;-88
2023/07/01 05:04:01;;;;;;;6.35;5.32;;;20.00;98.40;;;19.19;82.88;99297.66;12342189;23;96520;-88
2023/07/01 05:09:06;;;;;;;4.25;3.85;;;20.10;98.20;;;19.40;83.04;99302.31;12339554;23;96823;-88
2023/07/01 05:14:09;;;;;;;6.43;4.28;;;20.40;98.10;;;19.64;82.42;99304.81;12343920;23;96452;-88
2023/07/01 05:19:13;;;;;;;4.13;3.60;;;20.60;97.70;;;19.88;81.44;99298.13;12318720;23;97101;-88
2023/07/01 05:24:17;;;;;;;4.53;3.30;;;20.90;97.40;;;20.11;78.26;99302.47;12343155;23;96347;-87
2023/07/01 05:29:21;;;;;;;6.97;3.45;;;21.10;96.40;;;20.31;77.14;99299.19;12346524;23;96483;-87
2023/07/01 05:34:24;;;;;;;4.93;3.42;;;21.30;96.10;;;20.53;74.18;99307.28;12340986;23;96732;-87
2023/07/01 05:39:30;;;;;;;4.85;3.60;;;21.50;95.50;;;20.71;73.50;99306.91;12318514;23;96424;-87
2023/07/01 05:44:33;;;;;;;6.22;3.67;;;21.70;94.60;;;20.93;72.39;99317.66;12341140;23;96842;-87
2023/07/01 05:49:37;;;;;;;9.68;3.63;;;21.90;94.40;;;21.08;72.31;99301.56;12342137;23;97259;-87
2023/07/01 05:54:40;;;;;;;5.38;3.45;;;22.10;94.10;;;21.28;72.06;99303.59;12319955;23;96577;-87
2023/07/01 05:59:44;;;;;;;5.15;3.67;;;22.30;93.60;;;21.43;70.29;99300.22;12365100;23;96412;-88
2023/07/01 06:04:48;;;;;;;5.40;3.03;;;22.50;93.20;;;21.59;69.67;99301.94;12366754;23;96579;-88
2023/07/01 06:09:51;;;;;;;6.95;3.35;;;22.60;92.70;;;21.71;68.31;99295.50;12357077;23;96414;-87
2023/07/01 06:14:55;;;;;;;4.05;3.17;;;22.70;92.30;;;21.79;68.07;99300.41;12360911;23;96342;-87
2023/07/01 06:19:59;;;;;;;6.97;4.13;;;22.90;92.20;;;21.91;67.05;99301.81;12355960;23;96808;-87
2023/07/01 06:25:02;;;;;;;4.75;3.60;;;23.00;91.80;;;22.09;67.61;99310.56;12348819;23;96711;-88
2023/07/01 06:30:07;;;;;;;7.20;3.33;;;23.20;91.70;;;22.28;67.13;99317.16;12349519;23;96296;-88
2023/07/01 06:35:10;;;;;;;5.45;3.80;;;23.30;91.60;;;22.42;64.90;99312.84;12348322;23;96483;-87
2023/07/01 06:40:14;;;;;;;6.47;4.70;;;23.50;90.70;;;22.57;65.41;99300.44;12372554;23;96370;-87
2023/07/01 06:45:18;;;;;;;6.53;3.30;;;23.60;90.60;;;22.66;64.75;99299.63;12350903;23;96461;-87
2023/07/01 06:50:22;;;;;;;4.68;3.50;;;23.70;90.30;;;22.83;64.77;99302.09;12323863;23;96677;-87
2023/07/01 06:55:28;;;;;;;8.35;3.72;;;23.90;90.20;;;23.06;63.68;99298.06;12348537;23;96449;-87
2023/07/01 07:00:31;;;;;;;4.65;3.22;;;24.10;89.70;;;23.26;61.62;99293.69;12346103;23;96686;-88
2023/07/01 07:05:35;;;;;;;4.32;2.67;;;24.30;88.60;;;23.43;62.36;99286.91;12348071;23;96728;-87
2023/07/01 07:10:38;;;;;;;11.57;3.40;;;24.50;88.50;;;23.55;59.72;99288.50;12348722;23;96492;-88
2023/07/01 07:15:42;;;;;;;6.35;3.20;;;24.60;86.70;;;23.68;60.63;99269.78;12371168;23;96489;-88
2023/07/01 07:20:45;;;;;;;4.88;2.90;;;24.70;86.60;;;23.88;59.71;99270.81;12320552;23;96377;-88
2023/07/01 07:25:49;;;;;;;3.58;2.97;;;24.90;85.30;;;24.01;58.25;99262.06;12352485;23;96491;-88
2023/07/01 07:30:53;;;;;;;6.60;2.90;;;25.00;84.50;;;24.07;56.55;99250.09;12325986;23;96575;-87
2023/07/01 07:35:56;;;;;;;7.18;3.30;;;25.10;82.60;;;24.23;54.45;99261.66;12344346;23;96382;-88
2023/07/01 07:41:00;;;;;;;3.10;2.80;;;25.20;80.80;;;24.41;53.67;99257.50;12320623;23;96475;-87
2023/07/01 07:46:04;;;;;;;2.97;2.60;;;25.40;80.20;;;24.54;53.66;99251.47;12344074;23;96467;-87
2023/07/01 07:51:08;;;;;;;7.88;4.05;;;25.60;79.30;;;24.65;53.77;99242.16;12321500;23;97411;-87
2023/07/01 07:56:11;;;;;;;4.38;3.00;;;25.70;79.10;;;24.86;53.63;99250.94;12344445;23;96365;-87
2023/07/01 08:01:15;;;;;;;6.20;2.78;;;25.90;79.00;;;25.01;51.90;99245.38;12344468;23;96498;-88
2023/07/01 08:06:18;;;;;;;6.85;2.92;;;26.10;77.50;;;25.22;50.53;99239.75;12321148;23;96421;-88
2023/07/01 08:11:22;;;;;;;3.80;2.67;;;26.30;76.10;;;25.50;50.03;99243.56;12321468;23;96500;-88
2023/07/01 08:16:26;;;;;;;4.43;3.10;;;26.40;75.30;;;25.67;50.05;99235.72;12345266;23;96400;-88
2023/07/01 08:21:29;;;;;;;4.18;2.75;;;26.60;75.10;;;25.79;49.88;99225.28;12321341;23;96471;-87
2023/07/01 08:26:33;;;;;;;4.68;3.20;;;26.80;74.50;;;25.94;49.37;99220.72;12343826;23;96518;-87
2023/07/01 08:31:37;;;;;;;6.55;3.30;;;27.00;74.20;;;26.14;48.83;99221.25;12342816;23;96379;-87
2023/07/01 08:36:42;;;;;;;4.22;3.33;;;27.20;73.60;;;26.35;48.68;99221.75;12344220;23;96410;-87
2023/07/01 08:42:09;;;;;;;4.97;3.30;;;27.30;73.10;;;26.60;47.63;99225.22;12344193;23;96479;-86
2023/07/01 08:47:14;;;;;;;6.90;3.10;;;27.60;72.10;;;26.77;46.46;99211.06;12321308;23;96891;-87
2023/07/01 08:52:21;;;;;;;3.28;2.80;;;27.80;70.50;;;26.99;46.07;99210.38;12320979;23;96702;-87
2023/07/01 08:57:25;;;;;;;4.68;3.10;;;28.00;71.20;;;27.12;45.94;99209.66;12344094;23;96470;-87
2023/07/01 09:02:29;;;;;;;3.97;3.22;;;28.20;70.10;;;27.22;46.44;99204.00;12343524;23;96420;-87
2023/07/01 09:07:34;;;;;;;5.10;3.28;;;28.20;70.10;;;27.38;44.70;99199.88;12344250;23;96684;-87
2023/07/01 09:12:37;;;;;;;5.75;3.45;;;28.50;68.50;;;27.60;44.87;99199.16;12344243;23;97026;-86
2023/07/01 09:17:42;;;;;;;6.78;3.08;;;28.60;68.80;;;27.83;45.55;99191.88;12343733;23;96610;-87
2023/07/01 09:22:58;;;;;;;5.97;3.60;;;28.90;68.40;;;27.95;45.19;99192.16;12342352;23;96449;-87
2023/07/01 09:28:02;;;;;;;6.07;3.70;;;29.00;67.80;;;28.19;44.36;99183.69;12346026;23;96449;-87
2023/07/01 09:33:15;;;;;;;3.83;2.83;;;29.20;67.00;;;28.29;42.87;99174.44;12343863;23;96417;-87
2023/07/01 09:38:19;;;;;;;5.90;3.13;;;29.30;66.20;;;28.40;42.87;99173.09;12344005;23;96412;-87
2023/07/01 09:43:32;;;;;;;4.13;3.25;;;29.40;65.70;;;28.43;41.99;99168.94;12342065;23;96937;-86
2023/07/01 09:48:36;;;;;;;5.07;3.28;;;29.50;65.10;;;28.45;42.85;99173.00;12343586;23;96626;-86
2023/07/01 09:53:40;;;;;;;8.70;3.00;;;29.50;64.90;;;28.61;42.65;99165.22;12343055;23;96476;-87
2023/07/01 09:58:45;;;;;;;4.82;3.38;;;29.70;65.60;;;28.81;41.98;99150.22;12344222;23;96386;-87
2023/07/01 10:03:49;;;;;;;3.95;3.13;;;29.90;64.60;;;28.90;41.94;99150.25;12343137;23;96516;-87
2023/07/01 10:08:53;;;;;;;4.20;2.90;;;30.00;64.10;;;28.91;41.55;99160.06;12343039;23;96367;-87
2023/07/01 10:13:59;;;;;;;3.85;3.40;;;30.00;63.20;;;28.97;41.34;99146.00;12318876;23;96546;-87
2023/07/01 10:19:46;;;;;;;5.80;3.25;;;30.00;63.00;;;29.13;40.74;99140.09;12343121;23;97292;-87
2023/07/01 10:25:04;;;;;;;4.88;3.03;;;30.20;62.40;;;29.24;40.00;99133.22;12320762;23;96437;-87
2023/07/01 10:30:14;;;;;;;4.53;2.35;;;30.30;61.90;;;29.29;39.08;99136.59;12343455;23;96520;-87
2023/07/01 10:35:18;;;;;;;3.78;3.00;;;30.40;61.30;;;29.27;40.24;99132.59;12345800;23;96475;-86
2023/07/01 10:40:28;;;;;;;2.85;2.40;;;30.40;61.00;;;29.45;39.41;99123.31;12346458;23;97196;-87
2023/07/01 10:45:39;;;;;;;6.00;3.00;;;30.50;60.60;;;29.64;39.81;99124.97;12343268;23;96587;-87
2023/07/01 10:51:04;;;;;;;5.80;2.60;;;30.60;60.90;;;29.66;38.45;99115.31;12344111;23;96804;-86
2023/07/01 10:56:13;;;;;;;5.50;2.58;;;30.80;59.60;;;29.87;38.68;99129.19;12346135;23;97062;-88
2023/07/01 11:01:44;;;;;;;3.28;2.75;;;30.90;59.70;;;29.85;37.87;99121.25;12322677;23;96570;-87
2023/07/01 11:06:53;;;;;;;3.60;2.60;;;30.90;59.00;;;29.77;38.28;99113.88;12344256;23;96601;-87
2023/07/01 11:11:59;;;;;;;5.57;3.30;;;30.80;59.30;;;29.81;38.17;99114.03;12346183;23;97283;-87
2023/07/01 11:17:10;;;;;;;5.72;3.38;;;30.80;58.80;;;29.94;39.13;99115.81;12345143;23;96365;-87
2023/07/01 11:22:14;;;;;;;3.70;2.88;;;30.90;59.70;;;29.82;38.98;99104.69;12322095;23;96344;-86
2023/07/01 11:27:21;;;;;;;3.15;2.80;;;30.90;59.40;;;29.75;38.23;99105.19;12368099;23;96364;-86
2023/07/01 11:32:24;;;;;;;3.50;3.00;;;30.90;58.80;;;29.92;40.61;99104.34;12345084;23;96432;-87
2023/07/01 11:37:28;;;;;;;4.78;2.92;;;30.90;60.40;;;30.00;38.87;99091.81;12321767;23;96562;-87
2023/07/01 11:42:32;;;;;;;5.75;3.00;;;31.10;59.80;;;29.95;39.31;99095.50;12346094;23;97476;-87
2023/07/01 11:47:46;;;;;;;4.55;3.33;;;31.00;60.00;;;29.82;39.72;99078.13;12344548;23;96537;-87
2023/07/01 11:52:49;;;;;;;4.88;3.58;;;30.90;60.10;;;29.97;40.55;99085.03;12344661;23;96418;-87
2023/07/01 11:57:53;;;;;;;5.53;3.20;;;30.90;60.50;;;30.12;39.96;99089.25;12342735;23;96429;-87
2023/07/01 12:02:56;;;;;;;6.10;3.45;;;31.20;60.60;;;30.00;40.19;99078.09;12321040;23;96466;-87
2023/07/01 12:08:00;;;;;;;3.67;3.35;;;31.20;60.10;;;30.03;40.63;99081.00;12320166;23;96567;-87
2023/07/01 12:13:05;;;;;;;8.70;3.53;;;31.20;60.50;;;30.15;39.98;99076.81;12345844;23;96374;-87
2023/07/01 12:18:27;;;;;;;3.72;3.00;;;31.40;60.00;;;30.25;40.70;99066.31;12344553;23;96491;-87
2023/07/01 12:23:43;;;;;;;5.68;3.33;;;31.70;60.00;;;30.30;39.91;99068.09;12366803;23;96588;-87
2023/07/01 12:28:47;;;;;;;4.75;2.80;;;31.90;59.50;;;30.50;40.59;99058.38;12343623;23;96410;-87
2023/07/01 12:33:51;;;;;;;4.32;3.00;;;32.30;59.80;;;31.00;38.11;99049.47;12345225;23;97060;-85
2023/07/01 12:38:56;;;;;;;4.25;3.00;;;33.00;57.50;;;31.47;37.24;99047.41;12368070;23;96335;-85
2023/07/01 12:43:59;;;;;;;4.43;3.00;;;33.70;57.00;;;31.92;37.05;99035.78;12343024;23;96542;-86
2023/07/01 12:49:04;;;;;;;3.92;2.88;;;34.10;56.60;;;32.45;35.60;99034.91;12320352;23;96468;-85
2023/07/01 12:54:08;;;;;;;4.55;2.22;;;34.20;55.10;;;32.48;33.38;99031.47;12343628;23;96495;-85
2023/07/01 12:59:21;;;;;;;3.65;2.83;;;34.00;53.80;;;32.36;34.97;99022.41;12346127;23;96516;-85
2023/07/01 13:04:29;;;;;;;6.15;3.10;;;33.60;55.10;;;32.16;34.41;99019.34;12342491;23;96419;-85
2023/07/01 13:09:43;;;;;;;3.77;2.87;;;33.40;54.20;;;32.24;34.90;99023.94;12344646;23;97403;-85
2023/07/01 13:14:47;;;;;;;3.03;2.65;;;33.40;54.80;;;32.19;34.82;99007.66;12343881;23;96377;-84
2023/07/01 13:19:52;;;;;;;4.72;2.97;;;33.80;54.60;;;32.11;34.00;99000.34;12368334;23;96436;-85
2023/07/01 13:24:56;;;;;;;4.70;3.00;;;33.80;53.20;;;32.16;34.22;99000.13;12344201;23;96456;-87
2023/07/01 13:30:00;;;;;;;3.10;2.78;;;34.00;53.30;;;32.45;34.65;99001.94;12342794;23;96904;-87
2023/07/01 13:35:06;;;;;;;5.60;3.20;;;34.10;53.60;;;32.90;34.07;99000.22;12343541;23;96971;-87
2023/07/01 13:40:11;;;;;;;4.35;2.88;;;34.30;53.90;;;33.31;33.13;98992.81;12365059;23;96605;-87
2023/07/01 13:45:26;;;;;;;5.78;2.72;;;34.40;53.40;;;33.62;32.54;98984.72;12343472;23;96458;-87
2023/07/01 13:50:30;;;;;;;4.72;2.72;;;34.50;53.20;;;33.47;32.64;98991.78;12344249;23;96433;-87
2023/07/01 13:55:34;;;;;;;4.65;2.50;;;34.20;52.60;;;33.11;31.91;98984.38;12343364;23;96610;-87
2023/07/01 14:00:44;;;;;;;3.72;2.63;;;33.90;52.30;;;33.00;33.33;98997.00;12343388;23;96392;-87
2023/07/01 14:05:55;;;;;;;4.35;2.70;;;33.80;53.60;;;33.01;32.30;98985.66;12343354;23;96804;-87
2023/07/01 14:10:59;;;;;;;4.15;2.25;;;33.90;52.80;;;32.94;33.52;98984.63;12320917;23;96410;-87
2023/07/01 14:16:04;;;;;;;4.00;2.38;;;33.80;53.10;;;32.88;32.87;98970.31;12344370;23;97029;-87
2023/07/01 14:21:07;;;;;;;4.05;2.58;;;33.90;52.60;;;32.78;33.11;98981.75;12367761;23;96429;-87
2023/07/01 14:26:28;;;;;;;7.18;2.67;;;33.90;52.40;;;32.84;33.19;98974.88;12321770;23;96350;-87
2023/07/01 14:31:32;;;;;;;4.10;2.42;;;33.90;52.80;;;32.76;33.13;98970.31;12346089;23;96687;-87
2023/07/01 14:36:40;;;;;;;5.47;2.40;;;34.00;52.30;;;32.77;32.09;98969.16;12345892;23;96496;-86
2023/07/01 14:41:43;;;;;;;3.90;2.20;;;34.10;51.50;;;32.56;32.82;98961.00;12346006;23;96524;-87
2023/07/01 14:46:47;;;;;;;3.90;2.00;;;34.00;51.50;;;32.54;31.87;98966.06;12321915;23;96490;-87
2023/07/01 14:51:51;;;;;;;2.20;1.98;;;34.20;50.90;;;32.09;33.50;98961.41;12322209;23;96436;-87
2023/07/01 14:56:55;;;;;;;5.93;2.72;;;33.80;51.10;;;31.81;33.64;98966.72;12321749;23;96325;-87
2023/07/01 15:01:59;;;;;;;5.90;2.40;;;33.40;51.70;;;31.28;35.47;98984.75;12369081;23;96753;-86
2023/07/01 15:07:03;;;;;;;5.18;2.50;;;32.70;52.90;;;30.64;36.88;98987.66;12368118;23;96536;-86
2023/07/01 15:12:08;;;;;;;5.63;2.83;;;32.00;54.10;;;30.24;37.62;98989.94;12344414;23;96492;-86
2023/07/01 15:17:11;;;;;;;4.82;2.67;;;31.40;54.90;;;29.86;37.93;98985.16;12344291;23;96532;-86
2023/07/01 15:22:15;;;;;;;3.97;2.63;;;31.00;55.30;;;29.50;38.56;98974.53;12343113;23;96816;-87
2023/07/01 15:27:19;;;;;;;3.70;2.53;;;30.70;55.90;;;29.05;38.68;98970.19;12344873;23;96472;-86
2023/07/01 15:32:22;;;;;;;2.58;2.17;;;30.20;56.20;;;28.98;39.80;98969.84;12344817;23;96643;-86
2023/07/01 15:37:27;;;;;;;3.17;2.20;;;30.10;57.50;;;28.85;41.11;98976.22;12344279;23;96427;-86
2023/07/01 15:42:31;;;;;;;5.15;2.83;;;29.90;58.00;;;28.57;42.03;98969.38;12344262;23;96563;-86
2023/07/01 15:47:35;;;;;;;7.10;2.88;;;29.70;58.90;;;28.34;43.00;98971.38;12344560;23;96579;-86
2023/07/01 15:52:39;;;;;;;4.95;2.80;;;29.30;59.70;;;27.98;44.36;98989.47;12343638;23;96339;-85
2023/07/01 15:57:42;;;;;;;4.22;2.90;;;29.00;61.20;;;27.76;46.47;98986.75;12325890;23;96483;-85
2023/07/01 16:02:46;;;;;;;5.53;3.33;;;28.80;63.40;;;27.70;48.14;98999.72;12370677;23;96368;-85
2023/07/01 16:08:04;;;;;;;4.75;3.33;;;28.70;65.00;;;27.44;50.09;99009.59;12343792;23;96438;-85
2023/07/01 16:13:15;;;;;;;5.93;3.65;;;28.40;67.30;;;27.21;51.35;99014.19;12367932;23;96316;-85
2023/07/01 16:18:33;;;;;;;5.00;3.63;;;28.10;68.40;;;26.99;53.58;99008.66;12343343;23;96532;-85
2023/07/01 16:23:44;;;;;;;4.43;3.50;;;27.80;70.30;;;26.84;53.93;99013.31;12342177;23;96953;-85
2023/07/01 16:28:49;;;;;;;5.20;3.65;;;27.70;70.50;;;26.69;54.82;99010.91;12344111;23;96716;-85
2023/07/01 16:33:56;;;;;;;5.60;4.03;;;27.50;71.00;;;26.59;55.35;99005.66;12365284;23;96638;-85
2023/07/01 16:39:09;;;;;;;6.70;3.70;;;27.40;71.80;;;26.44;56.27;99003.22;12340984;23;97010;-84
2023/07/01 16:44:15;;;;;;;6.00;3.88;;;27.20;72.30;;;26.23;56.68;99006.28;12367547;23;96606;-84
2023/07/01 16:49:19;;;;;;;4.22;3.83;;;27.00;72.90;;;26.13;57.09;99010.00;12344967;23;96479;-84
2023/07/01 16:54:37;;;;;;;3.85;3.22;;;26.90;73.40;;;26.11;57.83;99014.13;12367792;23;96674;-85
2023/07/01 16:59:47;;;;;;;5.15;3.55;;;26.90;73.80;;;26.06;58.03;99006.03;12343618;23;96884;-83
2023/07/01 17:04:51;;;;;;;5.40;3.50;;;26.90;73.90;;;26.01;58.52;99015.09;12342598;23;96446;-85
2023/07/01 17:09:56;;;;;;;5.93;3.67;;;26.90;74.30;;;25.95;58.69;99023.66;12319079;23;96529;-85
2023/07/01 17:15:01;;;;;;;4.82;3.35;;;26.80;75.30;;;25.80;57.17;99022.00;12343865;23;96731;-84
2023/07/01 17:20:08;;;;;;;4.90;3.22;;;26.70;74.00;;;25.63;56.95;99015.13;12343504;23;96483;-85
2023/07/01 17:25:12;;;;;;;4.28;3.40;;;26.50;74.00;;;25.41;58.27;99016.84;12343396;23;96414;-84
2023/07/01 17:30:16;;;;;;;6.80;3.35;;;26.20;74.60;;;25.18;58.66;99015.78;12366488;23;96825;-84
2023/07/01 17:35:21;;;;;;;4.15;3.17;;;26.00;75.30;;;25.02;59.62;99015.16;12342764;23;96934;-84
2023/07/01 17:40:25;;;;;;;4.55;3.25;;;25.90;75.70;;;24.88;60.26;99020.47;12371255;23;96390;-84
2023/07/01 17:45:29;;;;;;;4.90;3.40;;;25.70;76.10;;;24.74;60.56;99017.66;12343049;23;96796;-85
2023/07/01 17:50:33;;;;;;;6.35;3.65;;;25.60;76.60;;;24.59;61.21;99020.56;12342804;23;96454;-84
2023/07/01 17:55:36;;;;;;;4.63;3.42;;;25.40;77.20;;;24.44;61.72;99023.44;12341259;23;96524;-85
2023/07/01 18:00:40;;;;;;;5.43;3.85;;;25.30;77.80;;;24.35;62.55;99027.84;12341350;23;96471;-84
2023/07/01 18:05:44;;;;;;;4.38;3.42;;;25.20;78.40;;;24.22;63.44;99038.25;12343705;23;96568;-84
2023/07/01 18:10:47;;;;;;;4.65;3.47;;;25.10;78.80;;;24.17;63.49;99034.78;12347359;23;97151;-84
2023/07/01 18:15:51;;;;;;;4.45;3.38;;;25.00;79.20;;;24.08;64.09;99029.16;12370291;23;96437;-85
2023/07/01 18:20:54;;;;;;;4.00;3.22;;;24.90;79.50;;;24.00;64.36;99024.38;12320118;23;96575;-85
2023/07/01 18:25:58;;;;;;;3.13;2.83;;;24.90;79.70;;;23.94;64.43;99028.22;12319466;23;96444;-84
2023/07/01 18:31:01;;;;;;;3.58;3.00;;;24.80;79.90;;;23.92;64.46;99031.19;12342813;23;96539;-85
2023/07/01 18:36:05;;;;;;;4.25;3.47;;;24.80;80.00;;;23.93;64.41;99029.28;12342455;23;96455;-85
2023/07/01 18:41:10;;;;;;;4.32;3.20;;;24.80;80.20;;;23.91;64.60;99031.47;12348830;23;96816;-85
2023/07/01 18:46:19;;;;;;;3.33;2.88;;;24.80;80.10;;;23.88;64.61;99042.91;12341699;23;96543;-85
2023/07/01 18:51:24;;;;;;;9.52;3.38;;;24.70;80.20;;;23.82;65.72;99052.19;12344161;23;96508;-85
2023/07/01 18:56:27;;;;;;;7.80;3.85;;;24.70;80.80;;;23.74;65.40;99062.53;12366536;23;96791;-85
2023/07/01 19:01:34;;;;;;;3.50;3.20;;;24.60;80.80;;;23.66;65.60;99073.16;12340038;23;96992;-85
2023/07/01 19:06:38;;;;;;;6.93;3.45;;;24.50;81.00;;;23.61;65.81;99084.81;12347151;23;96750;-85
2023/07/01 19:11:42;;;;;;;3.83;3.53;;;24.50;81.20;;;23.58;65.86;99087.31;12319472;23;96519;-85
2023/07/01 19:16:46;;;;;;;6.10;3.40;;;24.50;81.50;;;23.54;66.97;99087.03;12349092;23;96523;-85
2023/07/01 19:21:50;;;;;;;6.90;3.90;;;24.40;81.90;;;23.46;66.98;99095.75;12346257;23;96431;-85
2023/07/01 19:26:56;;;;;;;6.00;3.80;;;24.30;82.50;;;23.40;68.26;99107.72;12344884;23;96677;-85
2023/07/01 19:32:03;;;;;;;5.50;3.88;;;24.30;83.20;;;23.36;68.45;99121.00;12366702;23;96423;-85
2023/07/01 19:37:07;;;;;;;6.50;3.95;;;24.30;83.40;;;23.28;68.96;99110.75;12366058;23;96680;-85
2023/07/01 19:42:11;;;;;;;4.72;3.63;;;24.20;83.70;;;23.27;69.26;99114.56;12344048;23;96488;-85
2023/07/01 19:47:14;;;;;;;4.80;4.30;;;24.20;83.90;;;23.28;69.86;99115.38;12368308;23;96555;-85
2023/07/01 19:52:18;;;;;;;7.13;3.83;;;24.20;84.40;;;23.23;69.26;99108.88;12368231;23;96336;-85
2023/07/01 19:57:22;;;;;;;7.30;4.47;;;24.20;84.20;;;23.18;70.69;99116.22;12367087;23;96858;-85
2023/07/01 20:02:28;;;;;;;5.38;3.78;;;24.10;85.00;;;23.15;70.43;99108.63;12343681;23;96723;-85
2023/07/01 20:07:33;;;;;;;7.22;4.13;;;24.00;85.20;;;23.09;69.56;99113.28;12367136;23;96444;-85
2023/07/01 20:12:36;;;;;;;4.93;3.50;;;24.00;85.10;;;23.06;69.76;99110.28;12344968;23;96534;-85
2023/07/01 20:17:40;;;;;;;10.43;3.90;;;23.90;85.20;;;23.00;70.22;99109.50;12342855;23;96559;-85
2023/07/01 20:22:43;;;;;;;5.13;4.13;;;23.90;85.70;;;22.96;70.98;99108.41;12343961;23;96440;-85
2023/07/01 20:27:47;;;;;;;4.05;3.60;;;23.90;86.00;;;22.92;70.94;99099.22;12319257;23;96347;-85
2023/07/01 20:32:50;;;;;;;4.55;3.47;;;23.80;86.20;;;22.88;70.45;99101.66;12320381;23;96350;-85
2023/07/01 20:37:55;;;;;;;5.13;3.70;;;23.80;86.30;;;22.87;70.44;99099.25;12321438;23;96495;-85
2023/07/01 20:42:59;;;;;;;3.80;3.33;;;23.80;86.30;;;22.86;70.60;99097.59;12343482;23;96424;-85
2023/07/01 20:48:02;;;;;;;4.90;3.63;;;23.80;86.30;;;22.78;70.34;99096.25;12343810;23;96473;-85
2023/07/01 20:53:06;;;;;;;6.90;3.95;;;23.70;86.30;;;22.69;70.50;99098.72;12365891;23;96479;-85
2023/07/01 20:58:10;;;;;;;4.22;3.83;;;23.60;86.50;;;22.57;70.61;99086.56;12342735;23;96383;-85
2023/07/01 21:03:13;;;;;;;5.07;3.80;;;23.50;86.60;;;22.49;70.25;99093.34;12345000;23;96497;-85
2023/07/01 21:08:17;;;;;;;5.90;4.22;;;23.40;86.70;;;22.39;70.93;99093.34;12343666;23;96421;-85
2023/07/01 21:13:21;;;;;;;4.57;3.92;;;23.30;87.10;;;22.26;71.08;99083.06;12320449;23;96388;-85